createdAt,value
2019-05-06T00:02:29.470Z,100587.00
2019-05-06T00:05:04.007Z,100590.36
2019-05-06T00:07:36.423Z,100579.25
2019-05-06T00:10:24.620Z,100584.23
2019-05-06T00:12:57.953Z,100581.80
2019-05-06T00:15:31.030Z,100577.95
2019-05-06T00:18:04.471Z,100573.11
2019-05-06T00:20:37.632Z,100581.17
2019-05-06T00:23:14.055Z,100577.44
2019-05-06T00:26:05.925Z,100578.95
2019-05-06T00:28:55.091Z,100576.08
2019-05-06T00:31:27.758Z,100575.75
2019-05-06T00:34:00.440Z,100587.76
2019-05-06T00:36:34.462Z,100573.28
2019-05-06T00:39:11.135Z,100581.42
2019-05-06T00:41:44.107Z,100581.14
2019-05-06T00:44:16.790Z,100574.56
2019-05-06T00:46:49.416Z,100574.31
2019-05-06T00:49:23.792Z,100574.84
2019-05-06T00:51:56.370Z,100581.48
2019-05-06T00:54:30.575Z,100578.20
2019-05-06T00:57:03.626Z,100586.16
2019-05-06T00:59:36.547Z,100583.76
2019-05-06T01:02:09.227Z,100584.36
2019-05-06T01:04:41.935Z,100585.66
2019-05-06T01:07:17.452Z,100585.31
2019-05-06T01:09:50.345Z,100582.97
2019-05-06T01:12:24.133Z,100584.27
2019-05-06T01:14:59.687Z,100589.16
2019-05-06T01:17:33.882Z,100592.94
2019-05-06T01:20:10.896Z,100590.25
2019-05-06T01:22:43.753Z,100592.23
2019-05-06T01:25:17.368Z,100589.41
2019-05-06T01:27:50.368Z,100587.90
2019-05-06T01:30:24.310Z,100595.32
2019-05-06T01:32:57.963Z,100593.37
2019-05-06T01:35:30.666Z,100589.43
2019-05-06T01:38:24.316Z,100589.64
2019-05-06T01:41:14.411Z,100591.62
2019-05-06T01:43:47.361Z,100587.98
2019-05-06T01:46:20.945Z,100594.06
2019-05-06T01:48:53.736Z,100591.03
2019-05-06T01:51:26.349Z,100593.27
2019-05-06T01:53:59.024Z,100600.23
2019-05-06T01:56:33.484Z,100597.30
2019-05-06T01:59:06.237Z,100590.67
2019-05-06T02:01:39.008Z,100593.52
2019-05-06T02:04:13.670Z,100590.30
2019-05-06T02:06:46.032Z,100593.82
2019-05-06T02:09:19.400Z,100591.39
2019-05-06T02:11:53.645Z,100586.35
2019-05-06T02:14:26.603Z,100594.41
2019-05-06T02:17:00.919Z,100591.66
2019-05-06T02:19:34.716Z,100587.46
2019-05-06T02:22:18.166Z,100584.84
2019-05-06T02:24:50.545Z,100588.82
2019-05-06T02:27:24.732Z,100593.13
2019-05-06T02:29:59.264Z,100593.70
2019-05-06T02:32:45.234Z,100590.00
2019-05-06T02:35:16.617Z,100587.48
2019-05-06T02:37:49.303Z,100586.42
2019-05-06T02:40:28.446Z,100587.98
2019-05-06T02:43:03.236Z,100591.44
2019-05-06T02:45:35.426Z,100589.68
2019-05-06T02:48:09.740Z,100592.33
2019-05-06T02:50:44.665Z,100587.81
2019-05-06T02:53:23.649Z,100581.02
2019-05-06T02:55:56.273Z,100584.56
2019-05-06T02:58:29.413Z,100583.76
2019-05-06T03:01:03.579Z,100588.86
2019-05-06T03:03:36.352Z,100588.92
2019-05-06T03:06:17.106Z,100593.77
2019-05-06T03:08:46.512Z,100584.09
2019-05-06T03:11:23.984Z,100588.44
2019-05-06T03:13:57.682Z,100593.16
2019-05-06T03:16:37.771Z,100599.63
2019-05-06T03:19:13.381Z,100595.92
2019-05-06T03:21:57.727Z,100593.23
2019-05-06T03:24:33.736Z,100600.92
2019-05-06T03:27:06.963Z,100598.17
2019-05-06T03:29:39.554Z,100597.27
2019-05-06T03:32:24.729Z,100599.23
2019-05-06T03:35:15.745Z,100598.80
2019-05-06T03:37:29.358Z,100599.69
2019-05-06T03:40:05.301Z,100603.41
2019-05-06T03:42:42.644Z,100598.17
2019-05-06T03:45:26.738Z,100594.62
2019-05-06T03:48:05.384Z,100599.86
2019-05-06T03:50:36.360Z,100603.11
2019-05-06T03:53:10.078Z,100601.71
2019-05-06T03:55:47.874Z,100603.00
2019-05-06T03:58:43.471Z,100603.98
2019-05-06T04:01:18.268Z,100601.67
2019-05-06T04:03:57.244Z,100594.88
2019-05-06T04:06:29.558Z,100598.19
2019-05-06T04:09:13.053Z,100601.67
2019-05-06T04:11:49.642Z,100601.95
2019-05-06T04:14:24.474Z,100603.48
2019-05-06T04:17:16.098Z,100612.89
2019-05-06T04:19:53.586Z,100603.09
2019-05-06T04:22:33.173Z,100609.95
2019-05-06T04:25:10.480Z,100607.77
2019-05-06T04:27:54.061Z,100602.97
2019-05-06T04:30:27.849Z,100600.11
2019-05-06T04:33:03.314Z,100596.44
2019-05-06T04:35:35.473Z,100596.66
2019-05-06T04:38:08.149Z,100603.36
2019-05-06T04:40:43.672Z,100595.90
2019-05-06T04:43:16.321Z,100596.49
2019-05-06T04:45:53.722Z,100602.05
2019-05-06T04:48:25.316Z,100599.76
2019-05-06T04:50:57.996Z,100592.93
2019-05-06T04:53:33.944Z,100597.44
2019-05-06T04:56:05.909Z,100600.91
2019-05-06T04:58:38.595Z,100595.11
2019-05-06T05:01:14.892Z,100598.41
2019-05-06T05:03:45.652Z,100604.88
2019-05-06T05:06:23.097Z,100599.16
2019-05-06T05:09:02.897Z,100606.03
2019-05-06T05:11:49.525Z,100594.39
2019-05-06T05:14:25.940Z,100592.45
2019-05-06T05:17:02.240Z,100597.18
2019-05-06T05:19:35.456Z,100590.79
2019-05-06T05:22:08.136Z,100593.58
2019-05-06T05:24:42.537Z,100597.70
2019-05-06T05:27:15.849Z,100588.84
2019-05-06T05:29:48.525Z,100592.56
2019-05-06T05:32:22.466Z,100593.25
2019-05-06T05:34:55.421Z,100593.09
2019-05-06T05:37:28.045Z,100587.77
2019-05-06T05:40:02.835Z,100586.17
2019-05-06T05:42:36.628Z,100587.99
2019-05-06T05:45:10.125Z,100591.44
2019-05-06T05:47:42.910Z,100581.62
2019-05-06T05:50:22.780Z,100583.56
2019-05-06T05:52:55.839Z,100586.61
2019-05-06T05:55:28.531Z,100583.02
2019-05-06T05:58:03.182Z,100588.31
2019-05-06T06:00:37.265Z,100582.24
2019-05-06T06:03:09.945Z,100581.77
2019-05-06T06:05:47.046Z,100581.05
2019-05-06T06:08:25.070Z,100582.77
2019-05-06T06:11:05.124Z,100583.17
2019-05-06T06:13:38.721Z,100584.38
2019-05-06T06:16:16.792Z,100590.84
2019-05-06T06:19:06.666Z,100594.84
2019-05-06T06:21:42.640Z,100587.73
2019-05-06T06:24:19.404Z,100589.27
2019-05-06T06:26:52.168Z,100593.45
2019-05-06T06:29:25.272Z,100589.28
2019-05-06T06:32:05.531Z,100584.09
2019-05-06T06:34:39.845Z,100577.30
2019-05-06T06:37:33.896Z,100578.81
2019-05-06T06:40:13.117Z,100578.41
2019-05-06T06:42:48.295Z,100577.59
2019-05-06T06:45:23.099Z,100584.80
2019-05-06T06:47:56.947Z,100589.20
2019-05-06T06:50:32.838Z,100581.28
2019-05-06T06:53:05.258Z,100584.80
2019-05-06T06:55:38.959Z,100579.37
2019-05-06T06:58:20.241Z,100579.67
2019-05-06T07:00:57.321Z,100580.63
2019-05-06T07:03:32.717Z,100582.95
2019-05-06T07:06:13.546Z,100580.62
2019-05-06T07:08:46.217Z,100580.01
2019-05-06T07:11:18.847Z,100581.80
2019-05-06T07:13:56.698Z,100583.95
2019-05-06T07:16:29.376Z,100585.80
2019-05-06T07:19:03.192Z,100592.78
2019-05-06T07:21:44.827Z,100585.75
2019-05-06T07:24:17.497Z,100582.80
2019-05-06T07:26:52.423Z,100580.80
2019-05-06T07:29:26.780Z,100580.73
2019-05-06T07:31:59.884Z,100577.78
2019-05-06T07:34:33.687Z,100578.55
2019-05-06T07:37:06.580Z,100581.84
2019-05-06T07:39:39.864Z,100575.97
2019-05-06T07:42:17.082Z,100584.27
2019-05-06T07:44:54.238Z,100581.94
2019-05-06T07:47:28.557Z,100585.20
2019-05-06T07:50:02.401Z,100580.91
2019-05-06T07:52:35.348Z,100581.31
2019-05-06T07:55:08.088Z,100583.71
2019-05-06T07:57:42.379Z,100590.03
2019-05-06T08:00:16.461Z,100584.66
2019-05-06T08:02:49.137Z,100582.09
2019-05-06T08:05:22.472Z,100579.73
2019-05-06T08:07:56.491Z,100584.38
2019-05-06T08:10:29.118Z,100580.69
2019-05-06T08:13:02.748Z,100575.43
2019-05-06T08:15:35.915Z,100571.53
2019-05-06T08:18:08.590Z,100573.18
2019-05-06T08:20:42.725Z,100573.02
2019-05-06T08:23:17.332Z,100571.17
2019-05-06T08:25:54.383Z,100571.76
2019-05-06T08:28:37.459Z,100572.55
2019-05-06T08:31:02.389Z,100574.08
2019-05-06T08:33:36.025Z,100567.27
2019-05-06T08:36:12.456Z,100575.43
2019-05-06T08:39:02.803Z,100577.19
2019-05-06T08:41:36.955Z,100577.89
2019-05-06T08:44:09.787Z,100573.48
2019-05-06T08:46:43.352Z,100576.59
2019-05-06T08:49:17.709Z,100578.05
2019-05-06T08:51:53.060Z,100564.03
2019-05-06T08:54:32.485Z,100571.16
2019-05-06T08:57:05.190Z,100571.38
2019-05-06T08:59:37.844Z,100576.97
2019-05-06T09:02:10.525Z,100583.34
2019-05-06T09:04:43.208Z,100586.44
2019-05-06T09:07:15.875Z,100570.64
2019-05-06T09:09:48.765Z,100566.22
2019-05-06T09:12:22.325Z,100564.97
2019-05-06T09:14:56.061Z,100552.20
2019-05-06T09:17:30.124Z,100549.12
2019-05-06T09:20:02.821Z,100549.55
2019-05-06T09:22:36.356Z,100547.81
2019-05-06T09:25:14.300Z,100553.93
2019-05-06T09:27:46.650Z,100556.70
2019-05-06T09:30:30.311Z,100558.38
2019-05-06T09:33:04.548Z,100562.23
2019-05-06T09:35:38.345Z,100562.57
2019-05-06T09:38:12.734Z,100563.30
2019-05-06T09:40:45.490Z,100558.75
2019-05-06T09:43:18.169Z,100557.49
2019-05-06T09:45:53.009Z,100565.58
2019-05-06T09:48:27.517Z,100571.73
2019-05-06T09:51:02.762Z,100563.93
2019-05-06T09:53:55.946Z,100553.08
2019-05-06T09:56:33.367Z,100563.91
2019-05-06T09:59:05.164Z,100566.20
2019-05-06T10:01:38.058Z,100562.76
2019-05-06T10:04:12.951Z,100567.09
2019-05-06T10:06:56.194Z,100569.13
2019-05-06T10:09:19.367Z,100570.55
2019-05-06T10:11:53.275Z,100557.55
2019-05-06T10:14:25.952Z,100562.92
2019-05-06T10:16:58.941Z,100562.06
2019-05-06T10:19:32.084Z,100558.70
2019-05-06T10:22:04.811Z,100542.94
2019-05-06T10:24:37.489Z,100546.42
2019-05-06T10:27:12.118Z,100548.93
2019-05-06T10:29:47.144Z,100548.68
2019-05-06T10:32:22.496Z,100559.67
2019-05-06T10:34:55.378Z,100560.09
2019-05-06T10:37:36.139Z,100562.72
2019-05-06T10:40:18.851Z,100564.97
2019-05-06T10:43:07.915Z,100565.22
2019-05-06T10:45:42.549Z,100569.98
2019-05-06T10:48:14.915Z,100560.59
2019-05-06T10:50:51.994Z,100560.14
2019-05-06T10:53:25.288Z,100561.12
2019-05-06T10:55:59.513Z,100562.36
2019-05-06T10:58:32.729Z,100549.53
2019-05-06T11:01:12.478Z,100546.05
2019-05-06T11:03:45.017Z,100559.03
2019-05-06T11:06:18.722Z,100563.52
2019-05-06T11:08:52.564Z,100563.09
2019-05-06T11:11:37.730Z,100574.00
2019-05-06T11:14:03.128Z,100572.23
2019-05-06T11:16:36.809Z,100568.87
2019-05-06T11:19:09.489Z,100579.19
2019-05-06T11:21:45.012Z,100576.98
2019-05-06T11:24:16.480Z,100573.27
2019-05-06T11:26:49.213Z,100574.97
2019-05-06T11:29:23.489Z,100579.09
2019-05-06T11:32:06.606Z,100575.10
2019-05-06T11:34:47.169Z,100575.37
2019-05-06T11:37:23.167Z,100578.28
2019-05-06T11:39:56.210Z,100582.00
2019-05-06T11:42:33.491Z,100575.59
2019-05-06T11:45:03.387Z,100567.15
2019-05-06T11:47:36.189Z,100566.16
2019-05-06T11:50:12.953Z,100565.27
2019-05-06T11:52:46.878Z,100564.62
2019-05-06T11:55:28.936Z,100565.87
2019-05-06T11:57:53.877Z,100562.52
2019-05-06T12:00:28.197Z,100562.59
2019-05-06T12:03:02.391Z,100567.97
2019-05-06T12:05:35.287Z,100566.68
2019-05-06T12:08:08.457Z,100569.74
2019-05-06T12:10:42.485Z,100560.59
2019-05-06T12:13:15.475Z,100560.14
2019-05-06T12:15:48.315Z,100564.51
2019-05-06T12:18:23.091Z,100561.67
2019-05-06T12:21:07.947Z,100561.91
2019-05-06T12:23:34.919Z,100558.98
2019-05-06T12:26:05.563Z,100553.43
2019-05-06T12:28:38.316Z,100552.40
2019-05-06T12:31:12.632Z,100550.81
2019-05-06T12:33:49.918Z,100546.97
2019-05-06T12:36:24.027Z,100555.77
2019-05-06T12:39:18.666Z,100547.03
2019-05-06T12:41:53.496Z,100555.06
2019-05-06T12:44:26.961Z,100553.23
2019-05-06T12:47:06.901Z,100547.12
2019-05-06T12:49:42.172Z,100549.81
2019-05-06T12:52:13.997Z,100550.25
2019-05-06T12:54:46.676Z,100543.38
2019-05-06T12:57:20.068Z,100535.03
2019-05-06T12:59:53.143Z,100538.05
2019-05-06T13:02:26.143Z,100530.70
2019-05-06T13:05:00.844Z,100522.59
2019-05-06T13:07:34.679Z,100521.16
2019-05-06T13:10:09.912Z,100515.27
2019-05-06T13:12:44.390Z,100518.06
2019-05-06T13:15:17.119Z,100519.70
2019-05-06T13:17:49.799Z,100515.55
2019-05-06T13:20:23.357Z,100516.62
2019-05-06T13:23:07.374Z,100508.54
2019-05-06T13:25:34.900Z,100524.02
2019-05-06T13:28:09.222Z,100521.29
2019-05-06T13:30:43.394Z,100520.27
2019-05-06T13:33:25.250Z,100512.77
2019-05-06T13:35:57.912Z,100512.85
2019-05-06T13:38:32.070Z,100497.16
2019-05-06T13:41:04.903Z,100506.84
2019-05-06T13:43:45.109Z,100494.48
2019-05-06T13:46:25.316Z,100484.90
2019-05-06T13:48:57.642Z,100472.62
2019-05-06T13:51:32.377Z,100478.58
2019-05-06T13:54:04.684Z,100469.59
2019-05-06T13:56:38.489Z,100488.72
2019-05-06T13:59:12.830Z,100480.70
2019-05-06T14:01:49.530Z,100484.75
2019-05-06T14:04:24.076Z,100494.41
2019-05-06T14:06:57.035Z,100482.11
2019-05-06T14:09:37.297Z,100492.11
2019-05-06T14:12:04.089Z,100490.53
2019-05-06T14:14:36.713Z,100488.80
2019-05-06T14:17:09.341Z,100474.37
2019-05-06T14:19:42.878Z,100481.61
2019-05-06T14:22:16.027Z,100470.66
2019-05-06T14:24:50.292Z,100473.55
2019-05-06T14:27:22.924Z,100476.78
2019-05-06T14:30:04.144Z,100479.70
2019-05-06T14:32:34.841Z,100487.83
2019-05-06T14:35:08.947Z,100496.92
2019-05-06T14:37:42.225Z,100494.42
2019-05-06T14:40:17.376Z,100483.63
2019-05-06T14:42:50.264Z,100474.59
2019-05-06T14:45:22.945Z,100478.94
2019-05-06T14:47:56.230Z,100490.06
2019-05-06T14:50:32.418Z,100496.72
2019-05-06T14:53:03.234Z,100495.73
2019-05-06T14:55:37.459Z,100498.03
2019-05-06T14:58:12.064Z,100505.06
2019-05-06T15:00:44.443Z,100505.05
2019-05-06T15:03:17.071Z,100505.91
2019-05-06T15:05:49.801Z,100497.42
2019-05-06T15:08:22.660Z,100489.20
2019-05-06T15:10:55.517Z,100488.36
2019-05-06T15:13:28.861Z,100486.24
2019-05-06T15:16:03.504Z,100498.86
2019-05-06T15:18:36.066Z,100493.36
2019-05-06T15:21:32.314Z,100483.02
2019-05-06T15:23:43.577Z,100495.20
2019-05-06T15:26:16.260Z,100487.17
2019-05-06T15:28:48.927Z,100487.15
2019-05-06T15:31:29.493Z,100495.36
2019-05-06T15:34:06.617Z,100494.16
2019-05-06T15:36:40.892Z,100494.72
2019-05-06T15:39:13.573Z,100489.30
2019-05-06T15:41:46.460Z,100493.84
2019-05-06T15:44:19.136Z,100520.48
2019-05-06T15:46:52.761Z,100512.55
2019-05-06T15:49:25.831Z,100520.05
2019-05-06T15:51:58.506Z,100520.77
2019-05-06T15:54:32.293Z,100526.86
2019-05-06T15:57:05.099Z,100524.72
2019-05-06T15:59:40.814Z,100509.33
2019-05-06T16:02:12.191Z,100494.05
2019-05-06T16:04:44.815Z,100487.15
2019-05-06T16:07:17.455Z,100500.56
2019-05-06T16:09:54.914Z,100490.36
2019-05-06T16:12:24.594Z,100491.84
2019-05-06T16:14:57.328Z,100494.62
2019-05-06T16:17:32.741Z,100493.83
2019-05-06T16:20:06.626Z,100499.81
2019-05-06T16:22:39.256Z,100496.30
2019-05-06T16:25:17.259Z,100498.91
2019-05-06T16:27:54.537Z,100503.70
2019-05-06T16:30:28.291Z,100502.59
2019-05-06T16:33:04.118Z,100505.48
2019-05-06T16:35:35.964Z,100498.26
2019-05-06T16:38:08.588Z,100504.98
2019-05-06T16:40:46.147Z,100504.58
2019-05-06T16:43:23.135Z,100506.55
2019-05-06T16:46:04.743Z,100497.73
2019-05-06T16:48:38.585Z,100498.23
2019-05-06T16:51:12.562Z,100501.08
2019-05-06T16:53:46.526Z,100509.62
2019-05-06T16:56:22.146Z,100494.72
2019-05-06T16:59:07.206Z,100503.77
2019-05-06T17:01:43.225Z,100508.62
2019-05-06T17:04:20.189Z,100496.62
2019-05-06T17:06:53.420Z,100508.14
2019-05-06T17:09:27.714Z,100512.20
2019-05-06T17:12:04.434Z,100506.68
2019-05-06T17:14:35.304Z,100512.22
2019-05-06T17:17:08.394Z,100512.15
2019-05-06T17:19:42.207Z,100524.34
2019-05-06T17:22:15.027Z,100526.08
2019-05-06T17:24:48.752Z,100526.37
2019-05-06T17:27:23.622Z,100525.37
2019-05-06T17:29:59.878Z,100532.64
2019-05-06T17:32:47.199Z,100529.59
2019-05-06T17:35:19.997Z,100530.16
2019-05-06T17:38:03.105Z,100546.25
2019-05-06T17:40:35.884Z,100544.41
2019-05-06T17:43:08.975Z,100543.25
2019-05-06T17:46:01.056Z,100547.59
2019-05-06T17:48:23.701Z,100550.84
2019-05-06T17:51:13.679Z,100553.30
2019-05-06T17:53:49.025Z,100547.87
2019-05-06T17:56:22.453Z,100555.36
2019-05-06T17:58:55.110Z,100556.47
2019-05-06T18:01:45.604Z,100554.48
2019-05-06T18:04:18.178Z,100564.73
2019-05-06T18:06:52.629Z,100561.93
2019-05-06T18:09:25.227Z,100569.48
2019-05-06T18:12:02.897Z,100565.71
2019-05-06T18:14:35.808Z,100575.01
2019-05-06T18:17:08.489Z,100574.19
2019-05-06T18:19:41.169Z,100572.55
2019-05-06T18:22:13.873Z,100572.22
2019-05-06T18:24:46.521Z,100587.17
2019-05-06T18:27:22.483Z,100590.81
2019-05-06T18:29:54.850Z,100590.94
2019-05-06T18:32:29.163Z,100598.55
2019-05-06T18:35:02.715Z,100603.33
2019-05-06T18:37:36.369Z,100605.51
2019-05-06T18:40:09.052Z,100607.28
2019-05-06T18:42:43.029Z,100611.27
2019-05-06T18:45:15.937Z,100612.22
2019-05-06T18:47:48.625Z,100614.55
2019-05-06T18:50:22.043Z,100617.30
2019-05-06T18:52:57.729Z,100620.38
2019-05-06T18:55:33.166Z,100626.14
2019-05-06T18:58:06.407Z,100632.69
2019-05-06T19:00:39.388Z,100634.61
2019-05-06T19:03:12.168Z,100633.41
2019-05-06T19:05:45.774Z,100647.03
2019-05-06T19:08:26.949Z,100639.98
2019-05-06T19:10:59.630Z,100643.00
2019-05-06T19:13:33.493Z,100646.86
2019-05-06T19:16:06.628Z,100646.24
2019-05-06T19:18:39.304Z,100651.63
2019-05-06T19:21:14.069Z,100655.23
2019-05-06T19:23:48.707Z,100648.14
2019-05-06T19:26:23.479Z,100651.30
2019-05-06T19:29:04.358Z,100647.13
2019-05-06T19:31:34.945Z,100649.75
2019-05-06T19:34:08.694Z,100652.30
2019-05-06T19:36:42.239Z,100653.28
2019-05-06T19:39:17.556Z,100654.97
2019-05-06T19:41:52.407Z,100646.66
2019-05-06T19:44:25.457Z,100648.75
2019-05-06T19:47:02.561Z,100648.75
2019-05-06T19:49:44.947Z,100651.78
2019-05-06T19:52:17.616Z,100648.66
2019-05-06T19:54:52.116Z,100646.02
2019-05-06T19:57:33.893Z,100646.42
2019-05-06T20:00:14.631Z,100646.02
2019-05-06T20:02:52.312Z,100648.66
2019-05-06T20:05:36.076Z,100648.78
2019-05-06T20:08:26.634Z,100648.98
2019-05-06T20:11:19.177Z,100640.03
2019-05-06T20:14:01.969Z,100644.48
2019-05-06T20:16:35.932Z,100652.42
2019-05-06T20:19:08.630Z,100642.92
2019-05-06T20:21:42.393Z,100646.47
2019-05-06T20:24:16.803Z,100651.41
2019-05-06T20:26:50.035Z,100641.77
2019-05-06T20:29:25.698Z,100647.09
2019-05-06T20:31:58.345Z,100648.98
2019-05-06T20:34:33.344Z,100646.36
2019-05-06T20:37:06.549Z,100649.07
2019-05-06T20:39:39.230Z,100644.37
2019-05-06T20:42:12.857Z,100639.15
2019-05-06T20:44:45.606Z,100641.83
2019-05-06T20:47:19.825Z,100644.03
2019-05-06T20:49:52.660Z,100645.84
2019-05-06T20:52:26.522Z,100641.03
2019-05-06T20:54:59.196Z,100638.48
2019-05-06T20:57:33.299Z,100642.88
2019-05-06T21:00:08.134Z,100645.91
2019-05-06T21:02:42.704Z,100641.44
2019-05-06T21:05:17.334Z,100641.83
2019-05-06T21:07:49.958Z,100651.30
2019-05-06T21:10:22.593Z,100646.45
2019-05-06T21:12:55.215Z,100648.98
2019-05-06T21:15:27.895Z,100648.88
2019-05-06T21:18:03.783Z,100657.94
2019-05-06T21:20:38.060Z,100651.31
2019-05-06T21:23:10.692Z,100652.58
2019-05-06T21:25:43.423Z,100654.53
2019-05-06T21:28:16.103Z,100655.20
2019-05-06T21:30:48.783Z,100655.83
2019-05-06T21:33:22.143Z,100655.16
2019-05-06T21:35:54.961Z,100652.18
2019-05-06T21:38:27.647Z,100656.34
2019-05-06T21:41:02.158Z,100655.21
2019-05-06T21:43:46.001Z,100657.52
2019-05-06T21:46:09.366Z,100653.29
2019-05-06T21:48:43.780Z,100651.33
2019-05-06T21:51:16.769Z,100649.30
2019-05-06T21:53:49.447Z,100653.41
2019-05-06T21:56:22.613Z,100657.48
2019-05-06T21:58:55.523Z,100656.34
2019-05-06T22:01:29.122Z,100655.52
2019-05-06T22:04:03.317Z,100655.37
2019-05-06T22:06:36.017Z,100652.20
2019-05-06T22:09:08.696Z,100647.33
2019-05-06T22:11:42.399Z,100646.80
2019-05-06T22:14:15.286Z,100640.17
2019-05-06T22:16:47.966Z,100641.37
2019-05-06T22:19:21.457Z,100641.37
2019-05-06T22:22:03.362Z,100645.20
2019-05-06T22:24:57.342Z,100647.89
2019-05-06T22:27:27.911Z,100641.81
2019-05-06T22:30:03.073Z,100638.39
2019-05-06T22:32:36.910Z,100637.91
2019-05-06T22:35:11.928Z,100637.45
2019-05-06T22:37:45.071Z,100634.78
2019-05-06T22:40:18.670Z,100636.08
2019-05-06T22:42:52.824Z,100636.41
2019-05-06T22:45:25.528Z,100634.06
2019-05-06T22:47:58.409Z,100634.78
2019-05-06T22:50:32.894Z,100631.13
2019-05-06T22:53:05.407Z,100627.81
2019-05-06T22:55:38.749Z,100627.25
2019-05-06T22:58:11.949Z,100630.93
2019-05-06T23:00:53.701Z,100632.86
2019-05-06T23:03:28.309Z,100631.33
2019-05-06T23:06:02.537Z,100630.97
2019-05-06T23:08:35.617Z,100631.47
2019-05-06T23:11:08.290Z,100635.84
2019-05-06T23:13:41.917Z,100636.45
2019-05-06T23:16:15.490Z,100637.97
2019-05-06T23:18:48.882Z,100633.41
2019-05-06T23:21:23.210Z,100631.94
2019-05-06T23:23:55.988Z,100639.96
2019-05-06T23:26:28.676Z,100642.48
2019-05-06T23:29:02.459Z,100640.20
2019-05-06T23:31:36.787Z,100637.96
2019-05-06T23:34:09.468Z,100637.43
2019-05-06T23:37:04.884Z,100641.74
2019-05-06T23:40:33.466Z,100641.62
2019-05-06T23:44:00.322Z,100639.53
2019-05-06T23:47:27.161Z,100645.21
2019-05-06T23:50:54.125Z,100646.08
2019-05-06T23:54:22.041Z,100648.78
2019-05-06T23:56:52.930Z,100643.32
2019-05-06T23:59:26.887Z,100646.96
